Time;durP1;ratioP1;P1;durP2;ratioP2;P2;SDS_P1;SDS_P2;PMS_P1;PMS_P2;Temp;Humidity;BMP_temperature;BMP_pressure;BME280_temperature;BME280_humidity;BME280_pressure;Samples;Min_cycle;Max_cycle;Signal;HPM_P1;HPM_P2
2022/02/01 00:00:39;;;;;;;82.47;35.92;;;;;;;;;;6155276;23;20009;-69
2022/02/01 00:03:05;;;;;;;75.65;34.42;;;;;;;;;;6156837;23;20033;-69
2022/02/01 00:08:29;;;;;;;90.25;37.58;;;;;;;;;;6156718;23;20032;-69
2022/02/01 00:11:23;;;;;;;76.47;35.10;;;;;;;;;;6155645;23;20018;-69
2022/02/01 00:19:20;;;;;;;83.03;35.53;;;;;;;;;;6156683;23;20091;-69
2022/02/01 00:38:16;;;;;;;85.07;37.08;;;;;;;;;;6157031;23;20005;-70
2022/02/01 00:40:52;;;;;;;84.80;37.25;;;;;;;;;;6131016;23;20001;-70
2022/02/01 00:43:17;;;;;;;83.30;37.08;;;;;;;;;;6157661;23;20072;-69
2022/02/01 00:45:43;;;;;;;82.18;36.08;;;;;;;;;;6157717;23;20064;-69
2022/02/01 00:48:09;;;;;;;88.88;37.97;;;;;;;;;;6156805;23;20088;-69
2022/02/01 00:50:34;;;;;;;91.05;38.50;;;;;;;;;;6130106;23;20006;-69
2022/02/01 00:53:00;;;;;;;86.07;37.22;;;;;;;;;;6156343;23;20017;-69
2022/02/01 00:55:26;;;;;;;88.18;37.42;;;;;;;;;;6156180;23;20025;-69
2022/02/01 00:57:51;;;;;;;92.10;37.40;;;;;;;;;;6156535;23;20010;-70
2022/02/01 01:00:17;;;;;;;86.57;36.75;;;;;;;;;;6106602;23;20092;-70
2022/02/01 01:02:42;;;;;;;86.10;37.17;;;;;;;;;;6157419;23;20006;-70
2022/02/01 01:05:08;;;;;;;90.43;37.80;;;;;;;;;;6131102;23;20105;-70
2022/02/01 01:07:34;;;;;;;88.43;36.50;;;;;;;;;;6156801;23;20040;-70
2022/02/01 01:10:01;;;;;;;79.47;36.20;;;;;;;;;;6156460;23;19997;-69
2022/02/01 01:12:28;;;;;;;74.93;32.88;;;;;;;;;;6155921;23;20032;-69
2022/02/01 01:15:21;;;;;;;74.43;33.30;;;;;;;;;;6156452;23;20084;-68
2022/02/01 01:18:22;;;;;;;71.35;32.35;;;;;;;;;;6131324;23;20055;-68
2022/02/01 01:45:19;;;;;;;59.85;24.27;;;;;;;;;;6156528;23;20342;-69
2022/02/01 01:55:39;;;;;;;42.90;19.95;;;;;;;;;;6155310;23;20028;-70
2022/02/01 01:58:05;;;;;;;42.55;18.98;;;;;;;;;;6155923;23;20089;-69
2022/02/01 02:01:14;;;;;;;44.22;19.05;;;;;;;;;;6155690;23;20025;-69
2022/02/01 02:03:20;;;;;;;53.03;21.00;;;;;;;;;;6136103;23;20009;-69
2022/02/01 02:05:45;;;;;;;51.25;19.77;;;;;;;;;;6155789;23;20346;-70
2022/02/01 02:08:12;;;;;;;38.65;17.48;;;;;;;;;;6156231;23;20006;-70
2022/02/01 02:10:47;;;;;;;44.20;18.83;;;;;;;;;;6156793;23;19998;-69
2022/02/01 02:16:01;;;;;;;44.63;18.52;;;;;;;;;;6156259;23;20346;-69
2022/02/01 02:18:27;;;;;;;36.90;16.70;;;;;;;;;;6129392;23;20020;-68
2022/02/01 02:20:54;;;;;;;38.33;16.10;;;;;;;;;;6155433;23;20008;-69
2022/02/01 02:23:20;;;;;;;38.85;16.00;;;;;;;;;;6155675;23;20028;-69
2022/02/01 02:25:45;;;;;;;49.53;21.50;;;;;;;;;;6129674;23;20418;-70
2022/02/01 02:28:14;;;;;;;43.13;17.65;;;;;;;;;;6155504;23;20006;-70
2022/02/01 02:30:40;;;;;;;38.67;16.40;;;;;;;;;;6155818;23;20001;-69
2022/02/01 02:33:08;;;;;;;37.65;16.00;;;;;;;;;;6155513;23;20014;-69
2022/02/01 02:35:42;;;;;;;37.70;15.02;;;;;;;;;;6129309;23;19997;-69
2022/02/01 02:38:14;;;;;;;30.90;14.32;;;;;;;;;;6155604;23;20044;-67
2022/02/01 02:46:02;;;;;;;30.55;13.75;;;;;;;;;;6156104;23;20006;-69
2022/02/01 02:48:29;;;;;;;32.13;14.60;;;;;;;;;;6156757;23;20005;-70
2022/02/01 02:50:54;;;;;;;34.45;14.05;;;;;;;;;;6130017;23;20005;-70
2022/02/01 02:53:20;;;;;;;32.53;14.52;;;;;;;;;;6156539;23;20052;-70
2022/02/01 02:55:45;;;;;;;34.08;14.68;;;;;;;;;;6155449;23;20323;-69
2022/02/01 02:58:11;;;;;;;29.80;13.90;;;;;;;;;;6155134;23;20104;-68
2022/02/01 03:00:36;;;;;;;29.83;12.95;;;;;;;;;;6155752;23;20012;-69
2022/02/01 03:03:02;;;;;;;33.72;14.10;;;;;;;;;;6155671;23;20002;-70
2022/02/01 03:05:28;;;;;;;31.45;13.60;;;;;;;;;;6155965;23;20013;-69
2022/02/01 03:07:54;;;;;;;29.10;12.80;;;;;;;;;;6156535;23;20299;-69
2022/02/01 03:10:20;;;;;;;31.27;13.93;;;;;;;;;;6156220;23;20016;-69
2022/02/01 03:20:39;;;;;;;31.33;13.10;;;;;;;;;;6155325;23;20005;-69
2022/02/01 03:23:05;;;;;;;33.55;13.13;;;;;;;;;;6155041;23;19997;-69
2022/02/01 03:25:30;;;;;;;27.35;11.52;;;;;;;;;;6129218;23;20362;-69
2022/02/01 03:27:56;;;;;;;27.27;12.40;;;;;;;;;;6154987;23;20002;-69
2022/02/01 03:30:22;;;;;;;30.77;13.10;;;;;;;;;;6155575;23;20005;-69
2022/02/01 03:32:48;;;;;;;27.88;12.68;;;;;;;;;;6155704;23;20001;-69
2022/02/01 03:35:13;;;;;;;29.33;11.65;;;;;;;;;;6156349;23;20453;-69
2022/02/01 03:37:39;;;;;;;32.63;13.27;;;;;;;;;;6131495;23;20430;-69
2022/02/01 03:40:04;;;;;;;28.85;13.65;;;;;;;;;;6157361;23;20490;-70
2022/02/01 03:42:30;;;;;;;28.00;13.70;;;;;;;;;;6131839;23;20398;-70
2022/02/01 03:44:56;;;;;;;26.92;12.68;;;;;;;;;;6156991;23;20029;-68
2022/02/01 03:47:21;;;;;;;28.70;12.65;;;;;;;;;;6157054;23;19993;-68
2022/02/01 03:49:47;;;;;;;32.85;13.65;;;;;;;;;;6156589;23;20060;-68
2022/02/01 03:52:12;;;;;;;30.98;12.98;;;;;;;;;;6130942;23;19994;-68
2022/02/01 03:54:39;;;;;;;29.77;13.00;;;;;;;;;;6156745;23;20013;-71
2022/02/01 03:57:06;;;;;;;27.42;13.05;;;;;;;;;;6132431;23;20006;-70
2022/02/01 03:59:31;;;;;;;31.65;12.90;;;;;;;;;;6157478;23;20056;-69
2022/02/01 04:01:58;;;;;;;32.35;15.02;;;;;;;;;;6157217;23;20002;-69
2022/02/01 04:04:24;;;;;;;31.85;13.52;;;;;;;;;;6157737;23;20012;-68
2022/02/01 04:06:50;;;;;;;27.95;12.52;;;;;;;;;;6157716;23;20044;-69
2022/02/01 04:09:16;;;;;;;30.65;12.00;;;;;;;;;;6157308;23;20009;-67
2022/02/01 04:11:41;;;;;;;25.95;11.10;;;;;;;;;;6157846;23;20042;-68
2022/02/01 04:14:07;;;;;;;27.35;11.55;;;;;;;;;;6157812;23;20017;-70
2022/02/01 04:16:33;;;;;;;29.48;11.95;;;;;;;;;;6131446;23;20012;-70
2022/02/01 04:19:02;;;;;;;24.80;11.65;;;;;;;;;;6157646;23;20009;-70
2022/02/01 04:21:28;;;;;;;25.45;10.82;;;;;;;;;;6131470;23;20033;-68
2022/02/01 04:23:53;;;;;;;23.30;10.60;;;;;;;;;;6157258;23;20001;-68
2022/02/01 04:26:19;;;;;;;25.70;11.10;;;;;;;;;;6157294;23;20077;-67
2022/02/01 04:28:45;;;;;;;32.53;12.90;;;;;;;;;;6157370;23;20005;-67
2022/02/01 04:31:11;;;;;;;23.17;9.93;;;;;;;;;;6157458;23;20077;-68
2022/02/01 04:33:36;;;;;;;23.60;10.32;;;;;;;;;;6131396;23;20446;-69
2022/02/01 04:36:03;;;;;;;25.23;10.85;;;;;;;;;;6156867;23;20001;-69
2022/02/01 04:38:28;;;;;;;25.23;11.07;;;;;;;;;;6157681;23;20017;-69
2022/02/01 04:40:54;;;;;;;21.50;9.20;;;;;;;;;;6157041;23;19998;-69
2022/02/01 04:43:20;;;;;;;19.75;10.07;;;;;;;;;;6130904;23;20088;-70
2022/02/01 04:45:46;;;;;;;23.77;9.73;;;;;;;;;;6157159;23;20378;-70
2022/02/01 04:48:11;;;;;;;23.45;10.25;;;;;;;;;;6157029;23;20002;-70
2022/02/01 04:50:39;;;;;;;22.80;9.43;;;;;;;;;;6157149;23;20084;-68
2022/02/01 04:53:05;;;;;;;26.10;10.77;;;;;;;;;;6131027;23;20009;-68
2022/02/01 04:55:54;;;;;;;25.92;9.57;;;;;;;;;;6156566;23;20330;-68
2022/02/01 04:58:17;;;;;;;24.88;11.23;;;;;;;;;;6156459;23;20013;-68
2022/02/01 05:00:43;;;;;;;25.25;10.88;;;;;;;;;;6156889;23;20017;-69
2022/02/01 05:03:08;;;;;;;23.17;10.68;;;;;;;;;;6157206;23;20084;-68
2022/02/01 05:05:34;;;;;;;23.30;10.35;;;;;;;;;;6156646;23;20331;-68
2022/02/01 05:08:04;;;;;;;22.08;10.50;;;;;;;;;;6156631;23;20005;-69
2022/02/01 05:10:30;;;;;;;25.73;9.80;;;;;;;;;;6156624;23;20370;-69
2022/02/01 05:13:06;;;;;;;22.00;10.18;;;;;;;;;;6156505;23;20033;-68
2022/02/01 05:15:31;;;;;;;23.17;9.93;;;;;;;;;;6156482;23;20009;-69
2022/02/01 05:17:57;;;;;;;24.02;10.90;;;;;;;;;;6156434;23;20005;-68
2022/02/01 05:23:24;;;;;;;22.58;9.70;;;;;;;;;;6054333;23;20011;-68
2022/02/01 05:25:50;;;;;;;23.35;10.52;;;;;;;;;;6134829;23;20009;-68
2022/02/01 05:28:16;;;;;;;26.70;10.88;;;;;;;;;;6153282;23;20016;-68
2022/02/01 05:30:43;;;;;;;22.38;10.63;;;;;;;;;;6153064;23;20005;-69
2022/02/01 05:33:09;;;;;;;25.88;10.13;;;;;;;;;;6152799;23;20017;-69
2022/02/01 05:35:34;;;;;;;20.05;10.50;;;;;;;;;;6152837;23;20001;-69
2022/02/01 05:38:00;;;;;;;22.58;10.43;;;;;;;;;;6153004;23;20047;-69
2022/02/01 05:40:27;;;;;;;24.65;10.48;;;;;;;;;;6126312;23;20013;-69
2022/02/01 05:43:02;;;;;;;25.17;11.52;;;;;;;;;;6153267;23;20009;-69
2022/02/01 05:45:28;;;;;;;28.15;12.50;;;;;;;;;;6126539;23;20076;-70
2022/02/01 05:47:54;;;;;;;21.90;9.73;;;;;;;;;;6153395;23;20025;-70
2022/02/01 05:50:20;;;;;;;25.65;10.52;;;;;;;;;;6153143;23;20065;-70
2022/02/01 05:52:45;;;;;;;26.48;10.52;;;;;;;;;;6152331;23;20009;-70
2022/02/01 05:55:12;;;;;;;21.95;9.85;;;;;;;;;;6152311;23;20017;-70
2022/02/01 05:57:37;;;;;;;22.08;10.20;;;;;;;;;;6125868;23;20013;-70
2022/02/01 06:00:04;;;;;;;23.65;10.68;;;;;;;;;;6152314;23;20020;-70
2022/02/01 06:02:39;;;;;;;24.67;10.60;;;;;;;;;;6152552;23;20006;-69
2022/02/01 06:05:05;;;;;;;19.73;10.15;;;;;;;;;;6152777;23;20009;-69
2022/02/01 06:07:31;;;;;;;23.88;11.40;;;;;;;;;;6153068;23;20002;-70
2022/02/01 06:09:56;;;;;;;25.50;10.88;;;;;;;;;;6152875;23;20005;-69
2022/02/01 06:12:22;;;;;;;26.08;12.05;;;;;;;;;;6152726;23;20005;-69
2022/02/01 06:14:49;;;;;;;21.67;11.40;;;;;;;;;;6152468;23;20002;-69
2022/02/01 06:17:14;;;;;;;27.98;11.95;;;;;;;;;;6126999;23;19998;-69
2022/02/01 06:19:40;;;;;;;25.20;11.00;;;;;;;;;;6152614;23;20093;-68
2022/02/01 06:22:05;;;;;;;25.15;12.27;;;;;;;;;;6125910;23;20010;-69
2022/02/01 06:24:32;;;;;;;25.00;12.43;;;;;;;;;;6152580;23;20005;-68
2022/02/01 06:26:58;;;;;;;26.50;13.30;;;;;;;;;;6152635;23;20079;-68
2022/02/01 06:29:23;;;;;;;27.10;13.00;;;;;;;;;;6152718;23;20350;-68
2022/02/01 06:31:49;;;;;;;24.88;12.63;;;;;;;;;;6152953;23;20005;-68
2022/02/01 06:34:14;;;;;;;25.73;12.27;;;;;;;;;;6152938;23;20013;-68
2022/02/01 06:36:40;;;;;;;26.48;12.55;;;;;;;;;;6152415;23;20505;-68
2022/02/01 06:39:07;;;;;;;30.45;15.30;;;;;;;;;;6152758;23;20010;-70
2022/02/01 06:41:33;;;;;;;30.00;16.45;;;;;;;;;;6126111;23;20422;-68
2022/02/01 06:43:59;;;;;;;35.38;17.98;;;;;;;;;;6152348;23;20009;-68
2022/02/01 06:46:25;;;;;;;30.88;16.85;;;;;;;;;;6152407;23;20012;-68
2022/02/01 06:48:51;;;;;;;34.25;15.63;;;;;;;;;;6152644;23;20088;-68
2022/02/01 06:51:18;;;;;;;29.80;14.88;;;;;;;;;;6152613;23;20002;-68
2022/02/01 06:53:45;;;;;;;31.40;14.63;;;;;;;;;;6152286;23;20013;-68
2022/02/01 06:56:18;;;;;;;34.08;14.93;;;;;;;;;;6152607;23;20021;-68
2022/02/01 06:58:45;;;;;;;27.65;12.05;;;;;;;;;;6126509;23;20544;-69
2022/02/01 07:01:11;;;;;;;21.27;10.57;;;;;;;;;;6152380;23;20048;-68
2022/02/01 07:03:36;;;;;;;20.80;11.00;;;;;;;;;;6152373;23;20005;-69
2022/02/01 07:06:05;;;;;;;20.25;10.48;;;;;;;;;;6152615;23;20033;-70
2022/02/01 07:08:31;;;;;;;22.15;10.90;;;;;;;;;;6152639;23;20013;-68
2022/02/01 07:10:56;;;;;;;21.77;10.25;;;;;;;;;;6151786;23;20001;-68
2022/02/01 07:13:22;;;;;;;30.58;13.40;;;;;;;;;;6152080;23;20100;-68
2022/02/01 07:15:47;;;;;;;25.17;12.07;;;;;;;;;;6152545;23;20586;-68
2022/02/01 07:18:13;;;;;;;27.70;13.70;;;;;;;;;;6152077;23;20014;-68
2022/02/01 07:20:38;;;;;;;27.90;14.65;;;;;;;;;;6151958;23;20013;-68
2022/02/01 07:23:05;;;;;;;31.40;14.07;;;;;;;;;;6151753;23;20013;-68
2022/02/01 07:25:32;;;;;;;29.58;15.02;;;;;;;;;;6152488;23;20732;-68
2022/02/01 07:28:02;;;;;;;25.63;13.68;;;;;;;;;;6152560;23;20008;-68
2022/02/01 07:30:28;;;;;;;24.77;13.17;;;;;;;;;;6152145;23;20399;-69
2022/02/01 07:32:55;;;;;;;21.40;10.90;;;;;;;;;;6152075;23;20084;-68
2022/02/01 07:35:22;;;;;;;25.48;13.18;;;;;;;;;;6152170;23;20002;-68
2022/02/01 07:37:48;;;;;;;20.90;10.73;;;;;;;;;;6152227;23;20017;-68
2022/02/01 07:40:14;;;;;;;25.75;12.20;;;;;;;;;;6152279;23;20002;-68
2022/02/01 07:42:40;;;;;;;18.63;8.80;;;;;;;;;;6152115;23;20006;-69
2022/02/01 07:45:07;;;;;;;24.88;12.52;;;;;;;;;;6152019;23;20326;-69
2022/02/01 07:47:34;;;;;;;21.92;10.20;;;;;;;;;;6152315;23;20423;-69
2022/02/01 07:50:00;;;;;;;24.20;12.55;;;;;;;;;;6152175;23;20434;-70
2022/02/01 07:52:26;;;;;;;20.90;11.10;;;;;;;;;;6151822;23;20140;-69
2022/02/01 07:54:51;;;;;;;24.83;10.85;;;;;;;;;;6151906;23;20442;-70
2022/02/01 07:57:17;;;;;;;18.67;8.68;;;;;;;;;;6152366;23;20006;-69
2022/02/01 07:59:43;;;;;;;21.73;10.27;;;;;;;;;;6152431;23;20006;-69
2022/02/01 08:02:19;;;;;;;19.85;10.32;;;;;;;;;;6152633;23;20093;-69
2022/02/01 08:04:48;;;;;;;24.48;10.70;;;;;;;;;;6152070;23;20677;-69
2022/02/01 08:07:14;;;;;;;22.25;10.70;;;;;;;;;;6152135;23;19998;-70
2022/02/01 08:09:44;;;;;;;25.05;10.90;;;;;;;;;;6152516;23;20002;-68
2022/02/01 08:17:35;;;;;;;13.55;8.48;;;;;;;;;;6151842;23;20006;-70
2022/02/01 08:20:06;;;;;;;;;;;;;;;;;;6153237;23;20016;-69
2022/02/01 08:22:59;;;;;;;18.63;7.70;;;;;;;;;;6152561;23;19979;-70
2022/02/01 08:25:24;;;;;;;15.18;7.07;;;;;;;;;;6153446;23;20009;-69
2022/02/01 08:27:50;;;;;;;20.20;9.85;;;;;;;;;;6153402;23;20039;-69
2022/02/01 08:30:15;;;;;;;22.95;9.85;;;;;;;;;;6153154;23;20012;-69
2022/02/01 08:32:41;;;;;;;19.45;9.80;;;;;;;;;;6152786;23;19998;-69
2022/02/01 08:35:06;;;;;;;12.10;6.63;;;;;;;;;;6153010;23;20001;-69
2022/02/01 08:37:32;;;;;;;15.75;8.27;;;;;;;;;;6153951;23;20092;-69
2022/02/01 08:39:58;;;;;;;18.35;8.02;;;;;;;;;;6153975;23;20056;-69
2022/02/01 08:42:23;;;;;;;17.25;8.38;;;;;;;;;;6154092;23;20001;-69
2022/02/01 08:44:49;;;;;;;16.05;8.60;;;;;;;;;;6154060;23;20017;-69
2022/02/01 08:47:15;;;;;;;16.85;8.85;;;;;;;;;;6127954;23;20001;-69
2022/02/01 08:49:41;;;;;;;13.63;7.13;;;;;;;;;;6154018;23;20603;-69
2022/02/01 08:52:10;;;;;;;14.52;7.95;;;;;;;;;;6153913;23;20005;-69
2022/02/01 08:54:38;;;;;;;14.38;7.32;;;;;;;;;;6153410;23;20026;-69
2022/02/01 08:57:23;;;;;;;18.13;8.73;;;;;;;;;;6127849;23;20005;-70
2022/02/01 08:59:49;;;;;;;15.93;8.05;;;;;;;;;;6153892;23;20032;-69
2022/02/01 09:02:15;;;;;;;17.90;8.30;;;;;;;;;;6153580;23;19998;-69
2022/02/01 09:04:41;;;;;;;13.70;6.97;;;;;;;;;;6153531;23;20009;-70
2022/02/01 09:07:07;;;;;;;8.13;4.35;;;;;;;;;;6153735;23;20080;-69
2022/02/01 09:09:33;;;;;;;17.00;7.07;;;;;;;;;;6153678;23;20060;-69
2022/02/01 09:11:58;;;;;;;13.02;6.35;;;;;;;;;;6153621;23;20005;-69
2022/02/01 09:14:24;;;;;;;11.32;6.22;;;;;;;;;;6153902;23;20346;-69
2022/02/01 09:16:51;;;;;;;8.93;5.07;;;;;;;;;;6153247;23;20442;-69
2022/02/01 09:19:17;;;;;;;12.63;6.07;;;;;;;;;;6152731;23;20017;-68
2022/02/01 09:21:44;;;;;;;11.68;5.53;;;;;;;;;;6152457;23;20001;-68
2022/02/01 09:24:10;;;;;;;11.38;5.72;;;;;;;;;;6153003;23;20009;-68
2022/02/01 09:26:35;;;;;;;12.63;6.22;;;;;;;;;;6153200;23;20001;-68
2022/02/01 09:29:01;;;;;;;11.90;6.20;;;;;;;;;;6153337;23;20109;-68
2022/02/01 09:31:26;;;;;;;6.60;3.80;;;;;;;;;;6126346;23;20005;-68
2022/02/01 09:33:52;;;;;;;8.48;4.15;;;;;;;;;;6151857;23;20020;-68
2022/02/01 09:36:17;;;;;;;9.45;4.55;;;;;;;;;;6152609;23;20005;-68
2022/02/01 09:38:43;;;;;;;9.05;5.05;;;;;;;;;;6152268;23;20016;-69
2022/02/01 09:41:08;;;;;;;10.32;5.40;;;;;;;;;;6151790;23;20085;-68
2022/02/01 09:43:34;;;;;;;8.52;5.10;;;;;;;;;;6152623;23;20036;-68
2022/02/01 09:46:00;;;;;;;8.77;4.80;;;;;;;;;;6126727;23;20633;-68
2022/02/01 09:48:26;;;;;;;10.70;4.85;;;;;;;;;;6153059;23;20012;-68
2022/02/01 09:50:52;;;;;;;10.50;5.18;;;;;;;;;;6153100;23;20005;-68
2022/02/01 09:53:18;;;;;;;8.32;4.35;;;;;;;;;;6152896;23;20045;-68
2022/02/01 09:55:43;;;;;;;10.95;6.15;;;;;;;;;;6126086;23;20055;-68
2022/02/01 09:58:12;;;;;;;9.30;4.93;;;;;;;;;;6153083;23;20009;-68
2022/02/01 10:00:47;;;;;;;8.48;4.30;;;;;;;;;;6152736;23;20458;-68
2022/02/01 10:03:17;;;;;;;10.73;5.80;;;;;;;;;;6153016;23;20040;-68
2022/02/01 10:05:44;;;;;;;9.43;5.17;;;;;;;;;;6152069;23;20008;-68
2022/02/01 10:08:24;;;;;;;7.05;4.45;;;;;;;;;;6126067;23;20045;-68
2022/02/01 10:10:50;;;;;;;;;;;;;;;;;;6152742;23;20014;-69
2022/02/01 10:13:18;;;;;;;8.98;5.15;;;;;;;;;;6152236;23;20317;-68
2022/02/01 10:15:54;;;;;;;13.18;6.03;;;;;;;;;;6125999;23;20426;-68
2022/02/01 10:18:32;;;;;;;10.48;5.65;;;;;;;;;;6152478;23;20016;-68
2022/02/01 10:21:04;;;;;;;11.10;6.28;;;;;;;;;;6152247;23;20013;-68
2022/02/01 10:23:32;;;;;;;14.63;6.82;;;;;;;;;;6151919;23;20009;-68
2022/02/01 10:26:06;;;;;;;14.55;7.05;;;;;;;;;;6152220;23;20063;-68
2022/02/01 10:31:24;;;;;;;12.90;6.13;;;;;;;;;;6152725;23;20040;-69
2022/02/01 10:36:16;;;;;;;11.68;5.60;;;;;;;;;;6152193;23;20012;-62
2022/02/01 10:38:42;;;;;;;10.23;6.07;;;;;;;;;;6152619;23;20330;-68
2022/02/01 10:41:12;;;;;;;11.68;6.75;;;;;;;;;;6125837;23;20001;-68
2022/02/01 10:43:38;;;;;;;10.82;6.05;;;;;;;;;;6126213;23;20009;-68
2022/02/01 10:46:07;;;;;;;12.10;7.00;;;;;;;;;;6126011;23;20077;-68
2022/02/01 10:48:33;;;;;;;15.70;8.35;;;;;;;;;;6152535;23;20010;-63
2022/02/01 10:51:17;;;;;;;15.15;7.78;;;;;;;;;;6151834;23;20005;-66
2022/02/01 10:53:43;;;;;;;14.68;8.02;;;;;;;;;;6151593;23;20442;-67
2022/02/01 10:56:10;;;;;;;14.30;7.47;;;;;;;;;;6136776;23;20028;-67
2022/02/01 10:58:37;;;;;;;13.77;6.85;;;;;;;;;;6136831;23;20028;-67
2022/02/01 11:01:03;;;;;;;16.85;7.55;;;;;;;;;;6151560;23;20013;-67
2022/02/01 11:03:30;;;;;;;16.95;8.18;;;;;;;;;;6151007;23;20132;-68
2022/02/01 11:05:57;;;;;;;14.65;7.82;;;;;;;;;;6151429;23;20181;-67
2022/02/01 11:08:26;;;;;;;16.15;8.30;;;;;;;;;;6152052;23;20001;-68
2022/02/01 11:10:52;;;;;;;14.93;8.10;;;;;;;;;;6152458;23;20014;-67
2022/02/01 11:13:18;;;;;;;19.48;8.88;;;;;;;;;;6151943;23;19997;-66
2022/02/01 11:15:55;;;;;;;15.57;8.02;;;;;;;;;;6152210;23;20014;-67
2022/02/01 11:18:26;;;;;;;15.65;7.88;;;;;;;;;;6125464;23;20064;-67
2022/02/01 11:21:12;;;;;;;16.73;8.00;;;;;;;;;;6151910;23;20020;-66
2022/02/01 11:23:49;;;;;;;13.85;6.88;;;;;;;;;;6151612;23;20010;-67
2022/02/01 11:26:22;;;;;;;13.95;6.72;;;;;;;;;;6152248;23;20009;-67
2022/02/01 11:31:34;;;;;;;15.30;7.78;;;;;;;;;;6131189;23;20022;-67
2022/02/01 11:34:00;;;;;;;13.32;6.93;;;;;;;;;;6151780;23;20005;-67
2022/02/01 11:36:25;;;;;;;16.98;8.10;;;;;;;;;;6152197;23;20009;-67
2022/02/01 11:38:52;;;;;;;15.10;8.88;;;;;;;;;;6152086;23;20005;-67
2022/02/01 11:41:30;;;;;;;11.93;7.68;;;;;;;;;;6151900;23;20741;-67
2022/02/01 11:44:05;;;;;;;12.35;6.05;;;;;;;;;;6151854;23;20006;-67
2022/02/01 11:46:31;;;;;;;12.40;6.95;;;;;;;;;;6152110;23;20009;-67
2022/02/01 11:48:56;;;;;;;11.57;5.97;;;;;;;;;;6151832;23;20004;-67
2022/02/01 11:51:23;;;;;;;13.73;7.95;;;;;;;;;;6151711;23;20016;-67
2022/02/01 11:53:55;;;;;;;15.57;7.85;;;;;;;;;;6151537;23;20394;-66
2022/02/01 11:56:29;;;;;;;12.05;7.65;;;;;;;;;;6152696;23;20010;-66
2022/02/01 11:58:56;;;;;;;12.55;6.22;;;;;;;;;;6153699;23;20029;-69
2022/02/01 12:01:49;;;;;;;12.85;7.03;;;;;;;;;;6153380;23;20015;-68
2022/02/01 12:04:17;;;;;;;13.27;7.10;;;;;;;;;;6148072;23;20069;-68
2022/02/01 12:06:48;;;;;;;18.08;7.63;;;;;;;;;;6153128;23;20089;-69
2022/02/01 12:09:22;;;;;;;10.98;6.45;;;;;;;;;;6152994;23;20005;-70
2022/02/01 12:11:58;;;;;;;11.93;6.32;;;;;;;;;;6153098;23;20010;-69
2022/02/01 12:14:24;;;;;;;14.20;7.03;;;;;;;;;;6152641;23;20013;-69
2022/02/01 12:16:51;;;;;;;10.32;5.45;;;;;;;;;;6153050;23;20017;-69
2022/02/01 12:19:40;;;;;;;13.05;7.95;;;;;;;;;;6152987;23;20076;-69
2022/02/01 12:22:25;;;;;;;13.75;7.65;;;;;;;;;;6136683;23;20406;-69
2022/02/01 12:24:50;;;;;;;9.23;5.38;;;;;;;;;;6152740;23;20029;-69
2022/02/01 12:27:16;;;;;;;14.57;8.02;;;;;;;;;;6152889;23;20628;-70
2022/02/01 12:29:41;;;;;;;12.57;6.90;;;;;;;;;;6152816;23;20105;-69
2022/02/01 12:32:07;;;;;;;13.13;7.82;;;;;;;;;;6126631;23;20001;-69
2022/02/01 12:34:33;;;;;;;15.60;8.23;;;;;;;;;;6152882;23;20017;-67
2022/02/01 12:36:58;;;;;;;11.45;7.10;;;;;;;;;;6152878;23;20002;-67
2022/02/01 12:47:04;;;;;;;15.10;8.25;;;;;;;;;;6153433;23;20029;-67
2022/02/01 12:49:44;;;;;;;12.77;6.95;;;;;;;;;;6126970;23;20009;-67
2022/02/01 12:52:19;;;;;;;14.77;8.00;;;;;;;;;;6152969;23;20016;-67
2022/02/01 12:54:45;;;;;;;11.77;6.80;;;;;;;;;;6153076;23;20017;-67
2022/02/01 12:57:18;;;;;;;14.48;7.95;;;;;;;;;;6152683;23;20085;-67
2022/02/01 12:59:53;;;;;;;11.70;7.15;;;;;;;;;;6126069;23;20060;-67
2022/02/01 13:02:24;;;;;;;18.67;9.38;;;;;;;;;;6152902;23;20461;-68
2022/02/01 13:04:49;;;;;;;;;;;;;;;;;;6126565;23;20084;-67
2022/02/01 13:07:27;;;;;;;18.05;9.98;;;;;;;;;;6126212;23;20475;-67
2022/02/01 13:18:13;;;;;;;18.50;10.30;;;;;;;;;;6152881;23;20009;-67
2022/02/01 13:20:43;;;;;;;16.98;8.63;;;;;;;;;;6153369;23;20093;-67
2022/02/01 13:23:09;;;;;;;20.42;10.95;;;;;;;;;;6153174;23;20307;-70
2022/02/01 13:25:38;;;;;;;21.42;10.98;;;;;;;;;;6152794;23;20036;-69
2022/02/01 13:28:06;;;;;;;16.17;8.60;;;;;;;;;;6126593;23;20024;-69
2022/02/01 13:30:34;;;;;;;15.07;7.38;;;;;;;;;;6152465;23;20002;-69
2022/02/01 13:33:07;;;;;;;17.85;9.15;;;;;;;;;;6153030;23;20009;-69
2022/02/01 13:35:42;;;;;;;19.95;10.57;;;;;;;;;;6153224;23;20009;-69
2022/02/01 13:38:09;;;;;;;17.58;9.35;;;;;;;;;;6153553;23;20021;-69
2022/02/01 13:40:36;;;;;;;18.05;8.65;;;;;;;;;;6126553;23;20612;-69
2022/02/01 13:43:10;;;;;;;16.08;9.25;;;;;;;;;;6153337;23;20016;-69
2022/02/01 13:45:37;;;;;;;17.30;8.35;;;;;;;;;;6153479;23;20009;-69
2022/02/01 13:48:02;;;;;;;21.77;9.52;;;;;;;;;;6152720;23;20001;-70
2022/02/01 13:50:33;;;;;;;23.17;10.70;;;;;;;;;;6154045;23;20033;-69
2022/02/01 13:53:00;;;;;;;22.90;10.05;;;;;;;;;;6153198;23;20045;-69
2022/02/01 13:55:28;;;;;;;28.70;13.80;;;;;;;;;;6153069;23;20390;-69
2022/02/01 13:58:11;;;;;;;21.02;10.43;;;;;;;;;;6152817;23;20013;-69
2022/02/01 14:00:41;;;;;;;27.65;11.45;;;;;;;;;;6126596;23;20045;-69
2022/02/01 14:03:19;;;;;;;20.20;9.32;;;;;;;;;;6152966;23;20001;-69
2022/02/01 14:05:57;;;;;;;25.75;12.13;;;;;;;;;;6153472;23;20438;-69
2022/02/01 14:08:38;;;;;;;19.58;9.98;;;;;;;;;;6153909;23;20005;-68
2022/02/01 14:34:56;;;;;;;15.52;9.18;;;;;;;;;;6152927;23;20013;-68
2022/02/01 14:45:09;;;;;;;15.20;9.02;;;;;;;;;;6152917;23;20557;-68
2022/02/01 14:47:35;;;;;;;12.65;6.43;;;;;;;;;;6126288;23;20033;-68
2022/02/01 14:50:00;;;;;;;17.00;9.48;;;;;;;;;;6152918;23;20194;-68
2022/02/01 14:52:26;;;;;;;12.70;7.15;;;;;;;;;;6152498;23;20005;-68
2022/02/01 14:54:55;;;;;;;18.88;9.98;;;;;;;;;;6153710;23;20001;-68
2022/02/01 15:13:23;;;;;;;14.77;8.65;;;;;;;;;;6126783;23;20013;-73
2022/02/01 15:15:49;;;;;;;19.50;9.27;;;;;;;;;;6126569;23;20010;-73
2022/02/01 15:18:15;;;;;;;14.52;8.38;;;;;;;;;;6126529;23;20434;-73
2022/02/01 15:20:40;;;;;;;15.60;8.82;;;;;;;;;;6125671;23;20052;-73
2022/02/01 15:23:06;;;;;;;16.27;10.00;;;;;;;;;;6125548;23;20069;-73
2022/02/01 15:25:31;;;;;;;14.57;8.10;;;;;;;;;;6126552;23;20077;-73
2022/02/01 15:27:57;;;;;;;16.08;8.38;;;;;;;;;;6127085;23;20002;-73
2022/02/01 15:30:22;;;;;;;16.40;8.80;;;;;;;;;;6125154;23;20002;-73
2022/02/01 15:32:48;;;;;;;13.32;8.45;;;;;;;;;;6129457;23;20088;-73
2022/02/01 15:35:15;;;;;;;11.98;7.25;;;;;;;;;;6129590;23;20009;-73
2022/02/01 15:37:43;;;;;;;15.75;9.40;;;;;;;;;;6129330;23;20006;-73
2022/02/01 15:59:21;;;;;;;26.33;15.10;;;;;;;;;;6150292;23;20156;-69
2022/02/01 16:01:56;;;;;;;45.47;24.10;;;;;;;;;;6158671;23;20010;-69
2022/02/01 16:04:22;;;;;;;35.90;20.85;;;;;;;;;;6158899;23;20382;-69
2022/02/01 16:06:57;;;;;;;26.10;15.85;;;;;;;;;;6158892;23;20077;-69
2022/02/01 16:11:48;;;;;;;23.58;12.73;;;;;;;;;;6158771;23;20493;-69
2022/02/01 16:14:14;;;;;;;21.08;10.70;;;;;;;;;;6158667;23;20009;-69
2022/02/01 16:16:39;;;;;;;25.30;13.95;;;;;;;;;;6158690;23;20009;-69
2022/02/01 16:19:08;;;;;;;18.80;10.48;;;;;;;;;;6158651;23;20005;-69
2022/02/01 16:21:34;;;;;;;24.33;14.10;;;;;;;;;;6158741;23;20430;-69
2022/02/01 16:23:59;;;;;;;25.52;13.85;;;;;;;;;;6158688;23;20006;-69
2022/02/01 16:26:26;;;;;;;34.05;19.90;;;;;;;;;;6158748;23;20411;-69
2022/02/01 16:28:52;;;;;;;37.97;21.98;;;;;;;;;;6158762;23;20005;-69
2022/02/01 16:31:17;;;;;;;34.88;19.95;;;;;;;;;;6132571;23;20033;-69
2022/02/01 16:33:43;;;;;;;36.33;20.05;;;;;;;;;;6158585;23;20006;-69
2022/02/01 16:36:15;;;;;;;31.85;17.90;;;;;;;;;;6158623;23;20140;-69
2022/02/01 16:38:40;;;;;;;40.70;21.83;;;;;;;;;;6158726;23;20005;-69
2022/02/01 16:41:06;;;;;;;26.58;15.55;;;;;;;;;;6158434;23;20084;-68
2022/02/01 16:43:35;;;;;;;23.55;13.23;;;;;;;;;;6157215;23;20422;-69
2022/02/01 16:46:02;;;;;;;25.58;14.65;;;;;;;;;;6130987;23;19994;-69
2022/02/01 16:48:27;;;;;;;18.52;11.25;;;;;;;;;;6156783;23;20053;-69
2022/02/01 16:50:52;;;;;;;23.48;14.50;;;;;;;;;;6156964;23;20006;-69
2022/02/01 16:53:20;;;;;;;18.42;11.60;;;;;;;;;;6157002;23;20136;-69
2022/02/01 16:58:30;;;;;;;29.05;16.90;;;;;;;;;;6156433;23;20041;-69
2022/02/01 17:00:57;;;;;;;30.48;16.92;;;;;;;;;;6156923;23;20104;-69
2022/02/01 17:03:23;;;;;;;28.67;16.15;;;;;;;;;;6156929;23;20080;-69
2022/02/01 17:05:52;;;;;;;31.60;18.38;;;;;;;;;;6156834;23;20013;-69
2022/02/01 17:08:17;;;;;;;29.65;15.90;;;;;;;;;;6156856;23;20080;-68
2022/02/01 17:10:50;;;;;;;23.85;14.48;;;;;;;;;;6156811;23;20469;-69
2022/02/01 17:16:12;;;;;;;19.30;10.88;;;;;;;;;;6156791;23;19998;-69
2022/02/01 17:19:11;;;;;;;20.10;12.35;;;;;;;;;;6157043;23;20010;-69
2022/02/01 17:21:37;;;;;;;19.40;11.05;;;;;;;;;;6157037;23;20016;-68
2022/02/01 17:24:04;;;;;;;16.13;9.85;;;;;;;;;;6156676;23;20002;-68
2022/02/01 17:26:33;;;;;;;19.63;11.20;;;;;;;;;;6156444;23;20077;-68
2022/02/01 17:28:59;;;;;;;18.42;9.75;;;;;;;;;;6156663;23;19997;-67